createdAt,value
2022-08-09T00:02:29.796Z,15.02
2022-08-09T00:07:31.669Z,14.91
2022-08-09T00:12:52.336Z,14.91
2022-08-09T00:18:04.701Z,14.72
2022-08-09T00:23:58.085Z,14.71
2022-08-09T00:28:35.163Z,14.70
2022-08-09T00:33:50.828Z,14.58
2022-08-09T00:38:53.606Z,14.59
2022-08-09T00:44:09.895Z,14.36
2022-08-09T00:49:16.899Z,14.50
2022-08-09T00:54:31.576Z,14.38
2022-08-09T00:59:46.601Z,14.31
2022-08-09T01:05:22.062Z,14.33
2022-08-09T01:11:00.533Z,14.25
2022-08-09T01:16:05.867Z,13.88
2022-08-09T01:21:14.223Z,13.89
2022-08-09T01:26:41.787Z,13.89
2022-08-09T01:32:30.802Z,13.99
2022-08-09T01:37:15.004Z,13.94
2022-08-09T01:42:23.912Z,13.89
2022-08-09T01:47:27.180Z,14.04
2022-08-09T01:52:34.292Z,13.91
2022-08-09T01:57:46.229Z,13.90
2022-08-09T02:02:55.137Z,13.81
2022-08-09T02:08:40.714Z,13.75
2022-08-09T02:13:37.282Z,13.73
2022-08-09T02:18:47.790Z,13.60
2022-08-09T02:23:54.753Z,13.61
2022-08-09T02:29:01.697Z,13.62
2022-08-09T02:34:13.578Z,13.58
2022-08-09T02:39:41.793Z,13.49
2022-08-09T02:44:52.543Z,13.45
2022-08-09T02:50:04.357Z,13.41
2022-08-09T02:55:21.095Z,13.42
2022-08-09T03:00:25.473Z,13.47
2022-08-09T03:05:34.598Z,13.47
2022-08-09T03:10:38.406Z,13.40
2022-08-09T03:16:06.122Z,13.42
2022-08-09T03:21:06.273Z,13.46
2022-08-09T03:26:08.653Z,13.39
2022-08-09T03:31:21.210Z,13.39
2022-08-09T03:36:27.418Z,13.25
2022-08-09T03:41:44.978Z,13.23
2022-08-09T03:46:50.563Z,13.30
2022-08-09T03:52:00.338Z,13.24
2022-08-09T03:57:17.959Z,13.07
2022-08-09T04:02:26.482Z,13.23
2022-08-09T04:07:47.392Z,13.26
2022-08-09T04:12:55.011Z,13.15
2022-08-09T04:17:57.808Z,13.09
2022-08-09T04:22:59.966Z,13.07
2022-08-09T04:28:03.582Z,13.08
2022-08-09T04:33:05.472Z,12.92
2022-08-09T04:38:09.969Z,13.16
2022-08-09T04:43:11.912Z,13.11
2022-08-09T04:48:15.507Z,13.10
2022-08-09T04:53:18.424Z,13.36
2022-08-09T04:58:19.970Z,13.43
2022-08-09T05:03:39.855Z,13.58
2022-08-09T05:08:48.047Z,13.75
2022-08-09T05:13:50.022Z,13.85
2022-08-09T05:18:58.128Z,14.08
2022-08-09T05:24:03.941Z,14.17
2022-08-09T05:29:17.590Z,14.37
2022-08-09T05:34:23.119Z,14.65
2022-08-09T05:39:35.731Z,14.87
2022-08-09T05:44:41.496Z,14.80
2022-08-09T05:50:30.197Z,15.09
2022-08-09T05:55:10.925Z,15.27
2022-08-09T06:00:21.043Z,15.47
2022-08-09T06:05:30.602Z,15.38
2022-08-09T06:10:47.152Z,15.59
2022-08-09T06:15:53.063Z,15.82
2022-08-09T06:20:58.246Z,15.96
2022-08-09T06:26:00.407Z,15.87
2022-08-09T06:31:03.014Z,16.22
2022-08-09T06:36:07.316Z,16.39
2022-08-09T06:41:12.425Z,16.29
2022-08-09T06:46:39.736Z,16.59
2022-08-09T06:51:42.618Z,16.81
2022-08-09T06:56:45.599Z,17.04
2022-08-09T07:01:57.805Z,17.34
2022-08-09T07:07:00.940Z,17.67
2022-08-09T07:12:06.483Z,18.43
2022-08-09T07:17:15.448Z,18.57
2022-08-09T07:22:18.188Z,18.90
2022-08-09T07:27:27.239Z,19.63
2022-08-09T07:32:36.276Z,20.07
2022-08-09T07:37:43.488Z,20.03
2022-08-09T07:42:50.051Z,20.37
2022-08-09T07:48:04.032Z,20.67
2022-08-09T07:53:09.851Z,20.91
2022-08-09T07:58:13.201Z,20.96
2022-08-09T08:03:15.772Z,21.43
2022-08-09T08:09:00.938Z,21.73
2022-08-09T08:13:56.301Z,22.29
2022-08-09T08:18:59.515Z,22.37
2022-08-09T08:24:11.749Z,23.04
2022-08-09T08:29:20.143Z,22.99
2022-08-09T08:34:28.881Z,23.38
2022-08-09T08:39:38.265Z,23.75
2022-08-09T08:44:51.878Z,23.07
2022-08-09T08:49:58.393Z,23.77
2022-08-09T08:55:05.558Z,23.79
2022-08-09T09:00:16.819Z,24.02
2022-08-09T09:05:59.089Z,23.29
2022-08-09T09:10:53.415Z,24.21
2022-08-09T09:15:56.245Z,23.94
2022-08-09T09:21:00.072Z,23.97
2022-08-09T09:26:12.321Z,23.87
2022-08-09T09:31:17.713Z,24.60
2022-08-09T09:36:39.534Z,24.73
2022-08-09T09:41:54.215Z,24.58
2022-08-09T09:47:15.059Z,25.01
2022-08-09T09:52:36.550Z,24.55
2022-08-09T09:58:03.220Z,25.36
2022-08-09T10:03:09.189Z,25.34
2022-08-09T10:08:27.120Z,24.82
2022-08-09T10:13:43.051Z,25.52
2022-08-09T10:18:54.334Z,24.93
2022-08-09T10:24:01.469Z,25.47
2022-08-09T10:29:31.079Z,26.31
2022-08-09T10:34:33.873Z,25.39
2022-08-09T10:39:40.526Z,25.59
2022-08-09T10:45:00.539Z,25.03
2022-08-09T10:50:27.002Z,26.31
2022-08-09T10:55:55.811Z,25.60
2022-08-09T11:03:07.032Z,25.65
2022-08-09T11:06:24.509Z,25.86
2022-08-09T11:11:51.789Z,26.59
2022-08-09T11:16:53.884Z,26.26
2022-08-09T11:22:10.686Z,26.02
2022-08-09T11:28:02.603Z,26.54
2022-08-09T11:33:31.680Z,26.11
2022-08-09T11:39:02.939Z,26.40
2022-08-09T11:44:04.744Z,26.27
2022-08-09T11:49:07.346Z,26.79
2022-08-09T11:54:27.540Z,26.21
2022-08-09T11:59:33.569Z,26.54
2022-08-09T12:04:37.636Z,26.35
2022-08-09T12:09:39.959Z,26.42
2022-08-09T12:15:08.123Z,26.35
2022-08-09T12:20:21.922Z,26.34
2022-08-09T12:25:35.644Z,26.96
2022-08-09T12:30:39.591Z,26.38
2022-08-09T12:35:42.879Z,26.96
2022-08-09T12:40:46.783Z,26.82
2022-08-09T12:45:59.746Z,26.45
2022-08-09T12:51:03.854Z,26.62
2022-08-09T12:56:37.105Z,26.85
2022-08-09T13:01:48.717Z,26.77
2022-08-09T13:06:54.165Z,26.64
2022-08-09T13:12:02.484Z,26.63
2022-08-09T13:17:13.503Z,26.71
2022-08-09T13:22:36.964Z,25.95
2022-08-09T13:27:55.042Z,27.00
2022-08-09T13:32:58.105Z,27.24
2022-08-09T13:38:02.758Z,27.18
2022-08-09T13:43:09.505Z,27.06
2022-08-09T13:48:12.066Z,27.00
2022-08-09T13:53:16.726Z,26.91
2022-08-09T13:58:18.302Z,26.80
2022-08-09T14:04:05.443Z,26.79
2022-08-09T14:08:43.503Z,26.98
2022-08-09T14:14:22.195Z,26.55
2022-08-09T14:19:07.898Z,26.69
2022-08-09T14:24:18.686Z,26.89
2022-08-09T14:30:15.029Z,26.84
2022-08-09T14:34:45.768Z,27.14
2022-08-09T14:39:48.705Z,26.72
2022-08-09T14:44:59.275Z,27.20
2022-08-09T14:50:02.544Z,26.99
2022-08-09T14:55:06.952Z,26.87
2022-08-09T15:00:10.707Z,27.08
2022-08-09T15:05:12.247Z,26.56
2022-08-09T15:10:17.674Z,26.65
2022-08-09T15:15:20.175Z,26.55
2022-08-09T15:21:57.384Z,26.59
2022-08-09T15:25:45.352Z,26.48
2022-08-09T15:30:57.325Z,26.68
2022-08-09T15:36:05.908Z,26.75
2022-08-09T15:41:09.536Z,26.53
2022-08-09T15:46:32.322Z,26.32
2022-08-09T15:52:02.058Z,26.56
2022-08-09T15:56:54.686Z,26.38
2022-08-09T16:01:57.148Z,26.40
2022-08-09T16:06:58.768Z,26.49
2022-08-09T16:12:03.968Z,26.36
2022-08-09T16:17:05.695Z,26.31
2022-08-09T16:22:07.262Z,26.45
2022-08-09T16:27:17.666Z,26.45
2022-08-09T16:32:34.094Z,26.65
2022-08-09T16:37:55.932Z,26.57
2022-08-09T16:43:05.094Z,26.41
2022-08-09T16:48:39.891Z,26.04
2022-08-09T16:53:32.548Z,26.29
2022-08-09T16:58:37.066Z,26.04
2022-08-09T17:03:41.642Z,25.96
2022-08-09T17:09:04.883Z,25.94
2022-08-09T17:14:05.217Z,25.91
2022-08-09T17:19:06.984Z,25.84
2022-08-09T17:24:28.148Z,25.79
2022-08-09T17:29:38.004Z,25.69
2022-08-09T17:35:04.143Z,25.74
2022-08-09T17:40:06.222Z,25.61
2022-08-09T17:45:27.270Z,25.54
2022-08-09T17:50:40.681Z,25.34
2022-08-09T17:56:01.970Z,25.28
2022-08-09T18:01:07.788Z,25.01
2022-08-09T18:06:14.763Z,24.90
2022-08-09T18:11:24.312Z,24.72
2022-08-09T18:16:29.133Z,24.64
2022-08-09T18:21:41.503Z,24.47
2022-08-09T18:26:46.609Z,24.36
2022-08-09T18:31:55.037Z,24.00
2022-08-09T18:36:58.021Z,23.76
2022-08-09T18:42:01.782Z,23.59
2022-08-09T18:47:08.311Z,23.51
2022-08-09T18:52:18.584Z,23.23
2022-08-09T18:57:42.615Z,23.10
2022-08-09T19:02:44.979Z,22.87
2022-08-09T19:08:03.918Z,22.72
2022-08-09T19:13:22.270Z,22.44
2022-08-09T19:18:36.492Z,22.43
2022-08-09T19:24:32.568Z,22.15
2022-08-09T19:29:15.650Z,22.02
2022-08-09T19:34:22.553Z,21.94
2022-08-09T19:39:43.744Z,21.73
2022-08-09T19:44:51.112Z,21.61
2022-08-09T19:50:10.139Z,21.46
2022-08-09T19:55:15.574Z,21.30
2022-08-09T20:00:17.700Z,21.13
2022-08-09T20:05:19.467Z,21.04
2022-08-09T20:10:34.851Z,21.07
2022-08-09T20:16:36.455Z,20.78
2022-08-09T20:21:00.198Z,20.67
2022-08-09T20:26:03.724Z,20.48
2022-08-09T20:31:09.142Z,20.49
2022-08-09T20:36:11.198Z,20.41
2022-08-09T20:41:12.841Z,20.27
2022-08-09T20:46:41.694Z,20.16
2022-08-09T20:51:40.983Z,20.09
2022-08-09T20:56:43.745Z,20.01
2022-08-09T21:01:51.405Z,19.87
2022-08-09T21:06:55.195Z,19.76
2022-08-09T21:18:22.402Z,19.50
2022-08-09T21:22:38.373Z,19.55
2022-08-09T21:27:51.126Z,19.36
2022-08-09T21:32:53.669Z,19.20
2022-08-09T21:37:59.280Z,19.10
2022-08-09T21:43:04.220Z,19.05
2022-08-09T21:48:14.168Z,18.87
2022-08-09T21:53:27.561Z,18.85
2022-08-09T21:58:38.883Z,18.67
2022-08-09T22:03:58.929Z,18.59
2022-08-09T22:09:01.555Z,18.57
2022-08-09T22:14:03.509Z,18.44
2022-08-09T22:19:53.425Z,18.36
2022-08-09T22:24:26.677Z,18.24
2022-08-09T22:29:34.505Z,18.17
2022-08-09T22:35:02.464Z,18.07
2022-08-09T22:40:10.030Z,18.04
2022-08-09T22:48:10.777Z,17.98
2022-08-09T22:50:33.638Z,17.93
2022-08-09T22:56:06.375Z,17.74
2022-08-09T23:00:57.429Z,17.69
2022-08-09T23:05:59.151Z,17.71
2022-08-09T23:11:01.548Z,17.61
2022-08-09T23:16:03.856Z,17.44
2022-08-09T23:21:06.399Z,17.56
2022-08-09T23:26:09.221Z,17.31
2022-08-09T23:31:10.943Z,17.26
2022-08-09T23:36:12.486Z,17.09
2022-08-09T23:41:27.496Z,17.07
2022-08-09T23:46:31.639Z,16.90
2022-08-09T23:51:33.466Z,16.77
2022-08-09T23:56:52.422Z,16.77
